Terminal Aerodrome Forecast
Issued by NWS

Home | Current Version | Previous Version | Text Only | Print | Product List | Glossary On
Versions: 1 2 3 4 5 6 7 8 9 10 11 12 13 14
000
FTUS44 KLZK 022021 AAA
TAFHOT
TAF AMD
KHOT 022021Z 0220/0318 20005KT P6SM VCTS SCT050CB
     FM030100 VRB03KT P6SM FEW250
      TEMPO 0311/0315 5SM BR
     FM031600 21005KT P6SM FEW040=

USA.gov is the U.S. government's official web portal to all federal, state and local government web resources and services.